sensor_id;sensor_type;location;lat;lon;timestamp;pressure;altitude;pressure_sealevel;temperature;humidity
53619;BME280;39505;53.040;18.488;2023-02-28T00:00:13;102877.75;;;-3.84;100.00
53619;BME280;39505;53.040;18.488;2023-02-28T00:00:46;102881.28;;;-3.83;100.00
53619;BME280;39505;53.040;18.488;2023-02-28T00:01:03;102882.13;;;-3.84;100.00
53619;BME280;39505;53.040;18.488;2023-02-28T00:01:17;102877.75;;;-3.84;100.00
53619;BME280;39505;53.040;18.488;2023-02-28T00:01:30;102884.75;;;-3.84;100.00
53619;BME280;39505;53.040;18.488;2023-02-28T00:01:44;102876.88;;;-3.84;100.00
53619;BME280;39505;53.040;18.488;2023-02-28T00:01:57;102882.09;;;-3.86;100.00
53619;BME280;39505;53.040;18.488;2023-02-28T00:02:09;102881.25;;;-3.85;100.00
53619;BME280;39505;53.040;18.488;2023-02-28T00:02:22;102880.38;;;-3.85;100.00
53619;BME280;39505;53.040;18.488;2023-02-28T00:02:36;102881.25;;;-3.86;100.00
53619;BME280;39505;53.040;18.488;2023-02-28T00:02:48;102881.22;;;-3.88;100.00
53619;BME280;39505;53.040;18.488;2023-02-28T00:03:01;102885.59;;;-3.87;100.00
53619;BME280;39505;53.040;18.488;2023-02-28T00:03:14;102877.72;;;-3.88;100.00
53619;BME280;39505;53.040;18.488;2023-02-28T00:03:27;102878.59;;;-3.89;100.00
53619;BME280;39505;53.040;18.488;2023-02-28T00:03:41;102880.34;;;-3.88;100.00
53619;BME280;39505;53.040;18.488;2023-02-28T00:03:54;102885.59;;;-3.88;100.00
53619;BME280;39505;53.040;18.488;2023-02-28T00:04:07;102881.22;;;-3.89;100.00
53619;BME280;39505;53.040;18.488;2023-02-28T00:04:21;102886.47;;;-3.89;100.00
53619;BME280;39505;53.040;18.488;2023-02-28T00:04:34;102882.06;;;-3.90;100.00
53619;BME280;39505;53.040;18.488;2023-02-28T00:04:48;102882.06;;;-3.90;100.00
53619;BME280;39505;53.040;18.488;2023-02-28T00:05:06;102885.56;;;-3.91;100.00
53619;BME280;39505;53.040;18.488;2023-02-28T00:05:20;102884.69;;;-3.92;100.00
53619;BME280;39505;53.040;18.488;2023-02-28T00:05:34;102877.66;;;-3.94;100.00
53619;BME280;39505;53.040;18.488;2023-02-28T00:05:46;102887.31;;;-3.93;100.00
53619;BME280;39505;53.040;18.488;2023-02-28T00:05:59;102880.28;;;-3.94;100.00
53619;BME280;39505;53.040;18.488;2023-02-28T00:06:12;102888.16;;;-3.94;100.00
53619;BME280;39505;53.040;18.488;2023-02-28T00:06:26;102879.41;;;-3.95;100.00
53619;BME280;39505;53.040;18.488;2023-02-28T00:06:39;102885.53;;;-3.94;100.00
53619;BME280;39505;53.040;18.488;2023-02-28T00:06:52;102884.66;;;-3.95;100.00
53619;BME280;39505;53.040;18.488;2023-02-28T00:07:05;102890.78;;;-3.96;100.00
53619;BME280;39505;53.040;18.488;2023-02-28T00:07:18;102891.66;;;-3.96;100.00
53619;BME280;39505;53.040;18.488;2023-02-28T00:07:31;102895.13;;;-3.95;100.00
53619;BME280;39505;53.040;18.488;2023-02-28T00:07:44;102885.53;;;-3.94;100.00
53619;BME280;39505;53.040;18.488;2023-02-28T00:07:58;102885.53;;;-3.94;100.00
53619;BME280;39505;53.040;18.488;2023-02-28T00:08:11;102885.53;;;-3.94;100.00
53619;BME280;39505;53.040;18.488;2023-02-28T00:08:25;102888.16;;;-3.94;100.00
53619;BME280;39505;53.040;18.488;2023-02-28T00:08:39;102890.78;;;-3.94;100.00
53619;BME280;39505;53.040;18.488;2023-02-28T00:08:52;102886.44;;;-3.94;100.00
53619;BME280;39505;53.040;18.488;2023-02-28T00:09:06;102887.31;;;-3.93;100.00
53619;BME280;39505;53.040;18.488;2023-02-28T00:09:19;102889.94;;;-3.93;100.00
53619;BME280;39505;53.040;18.488;2023-02-28T00:09:31;102884.69;;;-3.93;100.00
53619;BME280;39505;53.040;18.488;2023-02-28T00:09:44;102883.81;;;-3.92;100.00
53619;BME280;39505;53.040;18.488;2023-02-28T00:09:57;102889.03;;;-3.92;100.00
53619;BME280;39505;53.040;18.488;2023-02-28T00:10:12;102889.06;;;-3.91;100.00
53619;BME280;39505;53.040;18.488;2023-02-28T00:10:27;102885.56;;;-3.91;100.00
53619;BME280;39505;53.040;18.488;2023-02-28T00:10:41;102882.94;;;-3.91;100.00
53619;BME280;39505;53.040;18.488;2023-02-28T00:10:54;102889.94;;;-3.90;100.00
53619;BME280;39505;53.040;18.488;2023-02-28T00:11:08;102884.69;;;-3.90;100.00
53619;BME280;39505;53.040;18.488;2023-02-28T00:11:22;102886.44;;;-3.91;100.00
53619;BME280;39505;53.040;18.488;2023-02-28T00:11:35;102886.47;;;-3.89;100.00
53619;BME280;39505;53.040;18.488;2023-02-28T00:11:50;102885.56;;;-3.91;100.00
53619;BME280;39505;53.040;18.488;2023-02-28T00:12:04;102883.81;;;-3.91;100.00
53619;BME280;39505;53.040;18.488;2023-02-28T00:12:22;102884.69;;;-3.90;100.00
53619;BME280;39505;53.040;18.488;2023-02-28T00:12:35;102883.84;;;-3.89;100.00
53619;BME280;39505;53.040;18.488;2023-02-28T00:12:48;102884.69;;;-3.90;100.00
53619;BME280;39505;53.040;18.488;2023-02-28T00:13:03;102883.84;;;-3.89;100.00
53619;BME280;39505;53.040;18.488;2023-02-28T00:13:16;102882.97;;;-3.90;100.00
53619;BME280;39505;53.040;18.488;2023-02-28T00:13:30;102883.81;;;-3.92;100.00
53619;BME280;39505;53.040;18.488;2023-02-28T00:13:44;102882.97;;;-3.88;100.00
53619;BME280;39505;53.040;18.488;2023-02-28T00:13:58;102882.06;;;-3.90;100.00
53619;BME280;39505;53.040;18.488;2023-02-28T00:14:11;102885.59;;;-3.90;100.00
53619;BME280;39505;53.040;18.488;2023-02-28T00:14:24;102879.44;;;-3.90;100.00
53619;BME280;39505;53.040;18.488;2023-02-28T00:14:37;102887.31;;;-3.90;100.00
53619;BME280;39505;53.040;18.488;2023-02-28T00:14:50;102883.81;;;-3.92;100.00
53619;BME280;39505;53.040;18.488;2023-02-28T00:15:06;102880.34;;;-3.91;100.00
53619;BME280;39505;53.040;18.488;2023-02-28T00:15:19;102887.31;;;-3.92;100.00
53619;BME280;39505;53.040;18.488;2023-02-28T00:15:32;102885.56;;;-3.91;100.00
53619;BME280;39505;53.040;18.488;2023-02-28T00:15:45;102887.31;;;-3.92;100.00
53619;BME280;39505;53.040;18.488;2023-02-28T00:15:59;102875.94;;;-3.94;100.00
53619;BME280;39505;53.040;18.488;2023-02-28T00:16:14;102882.94;;;-3.91;100.00
53619;BME280;39505;53.040;18.488;2023-02-28T00:16:27;102889.03;;;-3.92;100.00
53619;BME280;39505;53.040;18.488;2023-02-28T00:16:41;102888.19;;;-3.93;100.00
53619;BME280;39505;53.040;18.488;2023-02-28T00:16:53;102889.94;;;-3.92;100.00
53619;BME280;39505;53.040;18.488;2023-02-28T00:17:06;102882.94;;;-3.93;100.00
53619;BME280;39505;53.040;18.488;2023-02-28T00:17:19;102876.81;;;-3.93;100.00
53619;BME280;39505;53.040;18.488;2023-02-28T00:17:33;102888.19;;;-3.91;100.00
53619;BME280;39505;53.040;18.488;2023-02-28T00:17:46;102882.06;;;-3.93;100.00
53619;BME280;39505;53.040;18.488;2023-02-28T00:17:59;102882.94;;;-3.93;100.00
53619;BME280;39505;53.040;18.488;2023-02-28T00:18:12;102888.19;;;-3.93;100.00
53619;BME280;39505;53.040;18.488;2023-02-28T00:18:25;102886.41;;;-3.92;100.00
53619;BME280;39505;53.040;18.488;2023-02-28T00:18:38;102893.44;;;-3.91;100.00
53619;BME280;39505;53.040;18.488;2023-02-28T00:18:51;102879.44;;;-3.93;100.00
53619;BME280;39505;53.040;18.488;2023-02-28T00:19:04;102882.06;;;-3.93;100.00
53619;BME280;39505;53.040;18.488;2023-02-28T00:19:18;102887.28;;;-3.95;100.00
53619;BME280;39505;53.040;18.488;2023-02-28T00:19:30;102883.78;;;-3.96;100.00
53619;BME280;39505;53.040;18.488;2023-02-28T00:19:43;102891.66;;;-3.96;100.00
53619;BME280;39505;53.040;18.488;2023-02-28T00:19:56;102883.78;;;-3.96;100.00
53619;BME280;39505;53.040;18.488;2023-02-28T00:20:10;102881.16;;;-3.99;100.00
53619;BME280;39505;53.040;18.488;2023-02-28T00:20:24;102887.25;;;-3.97;100.00
53619;BME280;39505;53.040;18.488;2023-02-28T00:20:37;102898.66;;;-3.96;100.00
53619;BME280;39505;53.040;18.488;2023-02-28T00:20:50;102890.75;;;-3.98;100.00
53619;BME280;39505;53.040;18.488;2023-02-28T00:21:03;102889.88;;;-3.97;100.00
53619;BME280;39505;53.040;18.488;2023-02-28T00:21:18;102888.13;;;-3.98;100.00
53619;BME280;39505;53.040;18.488;2023-02-28T00:21:31;102889.00;;;-3.97;100.00
53619;BME280;39505;53.040;18.488;2023-02-28T00:21:44;102893.31;;;-4.07;100.00
53619;BME280;39505;53.040;18.488;2023-02-28T00:21:56;102889.75;;;-4.12;100.00
53619;BME280;39505;53.040;18.488;2023-02-28T00:22:09;102887.22;;;-4.03;100.00
53619;BME280;39505;53.040;18.488;2023-02-28T00:22:23;102894.19;;;-4.03;100.00
53619;BME280;39505;53.040;18.488;2023-02-28T00:22:37;102889.81;;;-4.06;100.00
53619;BME280;39505;53.040;18.488;2023-02-28T00:22:52;102888.94;;;-4.03;100.00
53619;BME280;39505;53.040;18.488;2023-02-28T00:23:05;102891.56;;;-4.03;100.00
53619;BME280;39505;53.040;18.488;2023-02-28T00:23:18;102882.84;;;-4.04;100.00
53619;BME280;39505;53.040;18.488;2023-02-28T00:23:32;102882.84;;;-4.04;100.00
53619;BME280;39505;53.040;18.488;2023-02-28T00:23:45;102889.84;;;-4.04;100.00
53619;BME280;39505;53.040;18.488;2023-02-28T00:23:58;102884.59;;;-4.04;100.00
53619;BME280;39505;53.040;18.488;2023-02-28T00:24:11;102886.34;;;-4.03;100.00
53619;BME280;39505;53.040;18.488;2023-02-28T00:24:24;102892.47;;;-4.03;100.00
53619;BME280;39505;53.040;18.488;2023-02-28T00:24:37;102893.31;;;-4.04;100.00
53619;BME280;39505;53.040;18.488;2023-02-28T00:24:49;102887.22;;;-4.04;100.00
53619;BME280;39505;53.040;18.488;2023-02-28T00:25:02;102888.06;;;-4.05;100.00
53619;BME280;39505;53.040;18.488;2023-02-28T00:25:19;102887.19;;;-4.06;100.00
53619;BME280;39505;53.040;18.488;2023-02-28T00:25:32;102894.19;;;-4.05;100.00
53619;BME280;39505;53.040;18.488;2023-02-28T00:25:44;102888.97;;;-4.05;100.00
53619;BME280;39505;53.040;18.488;2023-02-28T00:25:57;102884.56;;;-4.06;100.00
53619;BME280;39505;53.040;18.488;2023-02-28T00:26:10;102887.19;;;-4.07;100.00
53619;BME280;39505;53.040;18.488;2023-02-28T00:26:23;102891.56;;;-4.06;100.00
53619;BME280;39505;53.040;18.488;2023-02-28T00:26:36;102889.81;;;-4.07;100.00
53619;BME280;39505;53.040;18.488;2023-02-28T00:26:49;102892.44;;;-4.07;100.00
53619;BME280;39505;53.040;18.488;2023-02-28T00:27:04;102896.78;;;-4.08;100.00
53619;BME280;39505;53.040;18.488;2023-02-28T00:27:16;102894.16;;;-4.08;100.00
53619;BME280;39505;53.040;18.488;2023-02-28T00:27:29;102888.06;;;-4.08;100.00
53619;BME280;39505;53.040;18.488;2023-02-28T00:27:42;102894.16;;;-4.08;100.00
53619;BME280;39505;53.040;18.488;2023-02-28T00:27:55;102888.06;;;-4.08;100.00
53619;BME280;39505;53.040;18.488;2023-02-28T00:28:09;102895.06;;;-4.07;100.00
53619;BME280;39505;53.040;18.488;2023-02-28T00:28:22;102898.56;;;-4.07;100.00
53619;BME280;39505;53.040;18.488;2023-02-28T00:28:35;102895.94;;;-4.07;100.00
53619;BME280;39505;53.040;18.488;2023-02-28T00:28:48;102892.44;;;-4.07;100.00
53619;BME280;39505;53.040;18.488;2023-02-28T00:29:00;102888.91;;;-4.08;100.00
53619;BME280;39505;53.040;18.488;2023-02-28T00:29:13;102895.03;;;-4.09;100.00
53619;BME280;39505;53.040;18.488;2023-02-28T00:29:26;102887.19;;;-4.09;100.00
53619;BME280;39505;53.040;18.488;2023-02-28T00:29:39;102895.03;;;-4.09;100.00
53619;BME280;39505;53.040;18.488;2023-02-28T00:29:53;102894.16;;;-4.09;100.00
53619;BME280;39505;53.040;18.488;2023-02-28T00:30:08;102895.03;;;-4.09;100.00
53619;BME280;39505;53.040;18.488;2023-02-28T00:30:22;102896.78;;;-4.08;100.00
53619;BME280;39505;53.040;18.488;2023-02-28T00:30:35;102893.28;;;-4.08;100.00
53619;BME280;39505;53.040;18.488;2023-02-28T00:30:48;102889.81;;;-4.09;100.00
53619;BME280;39505;53.040;18.488;2023-02-28T00:31:01;102895.03;;;-4.09;100.00
53619;BME280;39505;53.040;18.488;2023-02-28T00:31:15;102892.41;;;-4.09;100.00
53619;BME280;39505;53.040;18.488;2023-02-28T00:31:28;102890.66;;;-4.08;100.00
53619;BME280;39505;53.040;18.488;2023-02-28T00:31:41;102890.66;;;-4.10;100.00
53619;BME280;39505;53.040;18.488;2023-02-28T00:31:54;102895.03;;;-4.09;100.00
53619;BME280;39505;53.040;18.488;2023-02-28T00:32:07;102883.66;;;-4.11;100.00
53619;BME280;39505;53.040;18.488;2023-02-28T00:32:19;102897.63;;;-4.10;100.00
53619;BME280;39505;53.040;18.488;2023-02-28T00:32:32;102899.38;;;-4.11;100.00
53619;BME280;39505;53.040;18.488;2023-02-28T00:32:46;102896.75;;;-4.12;100.00
53619;BME280;39505;53.040;18.488;2023-02-28T00:33:00;102893.25;;;-4.13;100.00
53619;BME280;39505;53.040;18.488;2023-02-28T00:33:13;102888.00;;;-4.13;100.00
53619;BME280;39505;53.040;18.488;2023-02-28T00:33:26;102887.13;;;-4.15;100.00
53619;BME280;39505;53.040;18.488;2023-02-28T00:33:38;102889.75;;;-4.13;100.00
53619;BME280;39505;53.040;18.488;2023-02-28T00:33:51;102891.50;;;-4.15;100.00
53619;BME280;39505;53.040;18.488;2023-02-28T00:34:04;102891.50;;;-4.15;100.00
53619;BME280;39505;53.040;18.488;2023-02-28T00:34:17;102890.63;;;-4.16;100.00
53619;BME280;39505;53.040;18.488;2023-02-28T00:34:30;102888.88;;;-4.15;100.00
53619;BME280;39505;53.040;18.488;2023-02-28T00:34:43;102890.63;;;-4.16;100.00
53619;BME280;39505;53.040;18.488;2023-02-28T00:34:56;102894.09;;;-4.17;100.00
53619;BME280;39505;53.040;18.488;2023-02-28T00:35:10;102898.47;;;-4.16;100.00
53619;BME280;39505;53.040;18.488;2023-02-28T00:35:23;102894.94;;;-4.17;100.00
53619;BME280;39505;53.040;18.488;2023-02-28T00:35:35;102887.94;;;-4.19;100.00
53619;BME280;39505;53.040;18.488;2023-02-28T00:35:48;102894.97;;;-4.18;100.00
53619;BME280;39505;53.040;18.488;2023-02-28T00:36:06;102892.34;;;-4.18;100.00
53619;BME280;39505;53.040;18.488;2023-02-28T00:36:20;102898.44;;;-4.18;100.00
53619;BME280;39505;53.040;18.488;2023-02-28T00:36:33;102896.69;;;-4.17;100.00
53619;BME280;39505;53.040;18.488;2023-02-28T00:36:46;102893.25;;;-4.16;100.00
53619;BME280;39505;53.040;18.488;2023-02-28T00:37:01;102895.84;;;-4.16;100.00
53619;BME280;39505;53.040;18.488;2023-02-28T00:37:13;102890.63;;;-4.16;100.00
53619;BME280;39505;53.040;18.488;2023-02-28T00:37:26;102887.13;;;-4.15;100.00
53619;BME280;39505;53.040;18.488;2023-02-28T00:37:39;102896.72;;;-4.15;100.00
53619;BME280;39505;53.040;18.488;2023-02-28T00:37:52;102892.34;;;-4.15;100.00
53619;BME280;39505;53.040;18.488;2023-02-28T00:38:06;102894.09;;;-4.15;100.00
53619;BME280;39505;53.040;18.488;2023-02-28T00:38:18;102892.34;;;-4.15;100.00
53619;BME280;39505;53.040;18.488;2023-02-28T00:38:31;102892.34;;;-4.15;100.00
53619;BME280;39505;53.040;18.488;2023-02-28T00:38:44;102892.34;;;-4.15;100.00
53619;BME280;39505;53.040;18.488;2023-02-28T00:38:57;102889.75;;;-4.15;100.00
53619;BME280;39505;53.040;18.488;2023-02-28T00:39:09;102892.38;;;-4.13;100.00
53619;BME280;39505;53.040;18.488;2023-02-28T00:39:23;102890.63;;;-4.13;100.00
53619;BME280;39505;53.040;18.488;2023-02-28T00:39:37;102886.25;;;-4.14;100.00
53619;BME280;39505;53.040;18.488;2023-02-28T00:39:50;102888.84;;;-4.14;100.00
53619;BME280;39505;53.040;18.488;2023-02-28T00:40:04;102890.63;;;-4.13;100.00
53619;BME280;39505;53.040;18.488;2023-02-28T00:40:17;102891.50;;;-4.12;100.00
53619;BME280;39505;53.040;18.488;2023-02-28T00:40:30;102890.63;;;-4.13;100.00
53619;BME280;39505;53.040;18.488;2023-02-28T00:40:43;102891.50;;;-4.12;100.00
53619;BME280;39505;53.040;18.488;2023-02-28T00:40:57;102892.38;;;-4.12;100.00
53619;BME280;39505;53.040;18.488;2023-02-28T00:41:10;102894.09;;;-4.14;100.00
53619;BME280;39505;53.040;18.488;2023-02-28T00:41:23;102891.50;;;-4.12;100.00
53619;BME280;39505;53.040;18.488;2023-02-28T00:41:36;102889.75;;;-4.13;100.00
53619;BME280;39505;53.040;18.488;2023-02-28T00:41:49;102893.25;;;-4.13;100.00
53619;BME280;39505;53.040;18.488;2023-02-28T00:42:04;102893.22;;;-4.14;100.00
53619;BME280;39505;53.040;18.488;2023-02-28T00:42:18;102893.22;;;-4.14;100.00
53619;BME280;39505;53.040;18.488;2023-02-28T00:42:31;102893.22;;;-4.14;100.00
53619;BME280;39505;53.040;18.488;2023-02-28T00:42:44;102886.25;;;-4.15;100.00
53619;BME280;39505;53.040;18.488;2023-02-28T00:42:57;102888.84;;;-4.17;100.00
53619;BME280;39505;53.040;18.488;2023-02-28T00:43:10;102890.63;;;-4.16;100.00
53619;BME280;39505;53.040;18.488;2023-02-28T00:43:22;102894.97;;;-4.15;100.00
53619;BME280;39505;53.040;18.488;2023-02-28T00:43:37;102893.25;;;-4.16;100.00
53619;BME280;39505;53.040;18.488;2023-02-28T00:43:50;102888.84;;;-4.17;100.00
53619;BME280;39505;53.040;18.488;2023-02-28T00:44:03;102890.63;;;-4.16;100.00
53619;BME280;39505;53.040;18.488;2023-02-28T00:44:16;102895.84;;;-4.16;100.00
53619;BME280;39505;53.040;18.488;2023-02-28T00:44:29;102893.25;;;-4.16;100.00
53619;BME280;39505;53.040;18.488;2023-02-28T00:44:42;102888.00;;;-4.16;100.00
53619;BME280;39505;53.040;18.488;2023-02-28T00:44:56;102890.63;;;-4.16;100.00
53619;BME280;39505;53.040;18.488;2023-02-28T00:45:09;102891.50;;;-4.15;100.00
53619;BME280;39505;53.040;18.488;2023-02-28T00:45:22;102893.22;;;-4.14;100.00
53619;BME280;39505;53.040;18.488;2023-02-28T00:45:34;102892.34;;;-4.15;100.00
53619;BME280;39505;53.040;18.488;2023-02-28T00:45:47;102893.25;;;-4.16;100.00
53619;BME280;39505;53.040;18.488;2023-02-28T00:46:00;102886.19;;;-4.25;100.00
53619;BME280;39505;53.040;18.488;2023-02-28T00:46:13;102893.97;;;-4.28;100.00
53619;BME280;39505;53.040;18.488;2023-02-28T00:46:27;102893.19;;;-4.22;100.00
53619;BME280;39505;53.040;18.488;2023-02-28T00:46:40;102892.22;;;-4.30;100.00
53619;BME280;39505;53.040;18.488;2023-02-28T00:46:53;102901.03;;;-4.22;100.00
53619;BME280;39505;53.040;18.488;2023-02-28T00:47:06;102894.03;;;-4.23;100.00
53619;BME280;39505;53.040;18.488;2023-02-28T00:47:19;102897.47;;;-4.27;100.00
53619;BME280;39505;53.040;18.488;2023-02-28T00:47:32;102897.50;;;-4.23;100.00
53619;BME280;39505;53.040;18.488;2023-02-28T00:47:45;102894.03;;;-4.23;100.00
53619;BME280;39505;53.040;18.488;2023-02-28T00:48:02;102895.78;;;-4.22;100.00
53619;BME280;39505;53.040;18.488;2023-02-28T00:48:15;102895.78;;;-4.22;100.00
53619;BME280;39505;53.040;18.488;2023-02-28T00:48:28;102894.91;;;-4.21;100.00
53619;BME280;39505;53.040;18.488;2023-02-28T00:48:41;102893.19;;;-4.22;100.00
53619;BME280;39505;53.040;18.488;2023-02-28T00:48:54;102894.88;;;-4.23;100.00
53619;BME280;39505;53.040;18.488;2023-02-28T00:49:06;102889.66;;;-4.23;100.00
53619;BME280;39505;53.040;18.488;2023-02-28T00:49:20;102901.03;;;-4.22;100.00
53619;BME280;39505;53.040;18.488;2023-02-28T00:49:33;102894.88;;;-4.23;100.00
53619;BME280;39505;53.040;18.488;2023-02-28T00:49:46;102894.88;;;-4.23;100.00
53619;BME280;39505;53.040;18.488;2023-02-28T00:49:59;102894.03;;;-4.23;100.00
53619;BME280;39505;53.040;18.488;2023-02-28T00:50:12;102897.53;;;-4.24;100.00
53619;BME280;39505;53.040;18.488;2023-02-28T00:50:26;102894.91;;;-4.24;100.00
53619;BME280;39505;53.040;18.488;2023-02-28T00:50:39;102892.28;;;-4.24;100.00
53619;BME280;39505;53.040;18.488;2023-02-28T00:50:51;102896.66;;;-4.25;100.00
53619;BME280;39505;53.040;18.488;2023-02-28T00:51:05;102895.75;;;-4.25;100.00
53619;BME280;39505;53.040;18.488;2023-02-28T00:51:17;102893.97;;;-4.29;100.00
53619;BME280;39505;53.040;18.488;2023-02-28T00:51:30;102893.06;;;-4.31;100.00
53619;BME280;39505;53.040;18.488;2023-02-28T00:51:43;102894.84;;;-4.30;100.00
53619;BME280;39505;53.040;18.488;2023-02-28T00:51:56;102896.56;;;-4.29;100.00
53619;BME280;39505;53.040;18.488;2023-02-28T00:52:10;102893.97;;;-4.31;100.00
53619;BME280;39505;53.040;18.488;2023-02-28T00:52:22;102895.69;;;-4.31;100.00
53619;BME280;39505;53.040;18.488;2023-02-28T00:52:35;102890.44;;;-4.31;100.00
53619;BME280;39505;53.040;18.488;2023-02-28T00:52:48;102893.06;;;-4.31;100.00
53619;BME280;39505;53.040;18.488;2023-02-28T00:53:01;102900.06;;;-4.32;100.00
53619;BME280;39505;53.040;18.488;2023-02-28T00:53:13;102893.06;;;-4.33;100.00
53619;BME280;39505;53.040;18.488;2023-02-28T00:53:26;102893.06;;;-4.33;100.00
53619;BME280;39505;53.040;18.488;2023-02-28T00:53:39;102891.31;;;-4.32;100.00
53619;BME280;39505;53.040;18.488;2023-02-28T00:53:53;102890.44;;;-4.34;100.00
53619;BME280;39505;53.040;18.488;2023-02-28T00:54:06;102892.16;;;-4.33;100.00
53619;BME280;39505;53.040;18.488;2023-02-28T00:54:19;102896.53;;;-4.34;100.00
53619;BME280;39505;53.040;18.488;2023-02-28T00:54:32;102893.91;;;-4.34;100.00
53619;BME280;39505;53.040;18.488;2023-02-28T00:54:45;102888.69;;;-4.34;100.00
53619;BME280;39505;53.040;18.488;2023-02-28T00:54:58;102889.56;;;-4.33;100.00
53619;BME280;39505;53.040;18.488;2023-02-28T00:55:11;102893.06;;;-4.34;100.00
53619;BME280;39505;53.040;18.488;2023-02-28T00:55:25;102892.19;;;-4.35;100.00
53619;BME280;39505;53.040;18.488;2023-02-28T00:55:37;102898.28;;;-4.34;100.00
53619;BME280;39505;53.040;18.488;2023-02-28T00:55:50;102893.94;;;-4.35;100.00
53619;BME280;39505;53.040;18.488;2023-02-28T00:56:03;102893.06;;;-4.34;100.00
53619;BME280;39505;53.040;18.488;2023-02-28T00:56:16;102899.16;;;-4.35;100.00
53619;BME280;39505;53.040;18.488;2023-02-28T00:56:28;102893.94;;;-4.35;100.00
53619;BME280;39505;53.040;18.488;2023-02-28T00:56:41;102893.94;;;-4.35;100.00
53619;BME280;39505;53.040;18.488;2023-02-28T00:56:55;102894.78;;;-4.37;100.00
53619;BME280;39505;53.040;18.488;2023-02-28T00:57:09;102891.28;;;-4.37;100.00
53619;BME280;39505;53.040;18.488;2023-02-28T00:57:22;102894.78;;;-4.37;100.00
53619;BME280;39505;53.040;18.488;2023-02-28T00:57:35;102890.41;;;-4.38;100.00
53619;BME280;39505;53.040;18.488;2023-02-28T00:57:47;102893.03;;;-4.38;100.00
53619;BME280;39505;53.040;18.488;2023-02-28T00:58:00;102889.50;;;-4.38;100.00
53619;BME280;39505;53.040;18.488;2023-02-28T00:58:13;102890.41;;;-4.38;100.00
53619;BME280;39505;53.040;18.488;2023-02-28T00:58:27;102892.16;;;-4.37;100.00
53619;BME280;39505;53.040;18.488;2023-02-28T00:58:40;102889.50;;;-4.38;100.00
53619;BME280;39505;53.040;18.488;2023-02-28T00:58:52;102890.41;;;-4.38;100.00
53619;BME280;39505;53.040;18.488;2023-02-28T00:59:05;102891.25;;;-4.39;100.00
53619;BME280;39505;53.040;18.488;2023-02-28T00:59:18;102893.88;;;-4.39;100.00
53619;BME280;39505;53.040;18.488;2023-02-28T00:59:31;102899.13;;;-4.37;100.00
53619;BME280;39505;53.040;18.488;2023-02-28T00:59:44;102897.38;;;-4.40;100.00
53619;BME280;39505;53.040;18.488;2023-02-28T00:59:58;102897.38;;;-4.40;100.00
53619;BME280;39505;53.040;18.488;2023-02-28T01:00:12;102894.75;;;-4.40;100.00
53619;BME280;39505;53.040;18.488;2023-02-28T01:00:24;102896.47;;;-4.40;100.00
53619;BME280;39505;53.040;18.488;2023-02-28T01:00:37;102892.09;;;-4.41;100.00
53619;BME280;39505;53.040;18.488;2023-02-28T01:00:50;102900.00;;;-4.40;100.00
53619;BME280;39505;53.040;18.488;2023-02-28T01:01:04;102889.50;;;-4.41;100.00
53619;BME280;39505;53.040;18.488;2023-02-28T01:01:18;102894.72;;;-4.41;100.00
53619;BME280;39505;53.040;18.488;2023-02-28T01:01:31;102892.13;;;-4.40;100.00
53619;BME280;39505;53.040;18.488;2023-02-28T01:01:45;102897.38;;;-4.40;100.00
53619;BME280;39505;53.040;18.488;2023-02-28T01:01:58;102892.97;;;-4.41;100.00
53619;BME280;39505;53.040;18.488;2023-02-28T01:02:11;102896.47;;;-4.40;100.00
53619;BME280;39505;53.040;18.488;2023-02-28T01:02:24;102886.91;;;-4.40;100.00
53619;BME280;39505;53.040;18.488;2023-02-28T01:02:37;102897.38;;;-4.40;100.00
53619;BME280;39505;53.040;18.488;2023-02-28T01:02:51;102889.53;;;-4.40;100.00
53619;BME280;39505;53.040;18.488;2023-02-28T01:03:03;102893.84;;;-4.40;100.00
53619;BME280;39505;53.040;18.488;2023-02-28T01:03:17;102895.59;;;-4.41;100.00
53619;BME280;39505;53.040;18.488;2023-02-28T01:03:30;102897.38;;;-4.40;100.00
53619;BME280;39505;53.040;18.488;2023-02-28T01:03:43;102897.38;;;-4.40;100.00
53619;BME280;39505;53.040;18.488;2023-02-28T01:03:56;102899.97;;;-4.38;100.00
53619;BME280;39505;53.040;18.488;2023-02-28T01:04:09;102893.88;;;-4.39;100.00
53619;BME280;39505;53.040;18.488;2023-02-28T01:04:22;102900.00;;;-4.40;100.00
53619;BME280;39505;53.040;18.488;2023-02-28T01:04:35;102899.13;;;-4.39;100.00
53619;BME280;39505;53.040;18.488;2023-02-28T01:04:49;102898.28;;;-4.38;100.00
53619;BME280;39505;53.040;18.488;2023-02-28T01:05:02;102895.66;;;-4.38;100.00
53619;BME280;39505;53.040;18.488;2023-02-28T01:05:15;102899.13;;;-4.39;100.00
53619;BME280;39505;53.040;18.488;2023-02-28T01:05:28;102899.13;;;-4.39;100.00
53619;BME280;39505;53.040;18.488;2023-02-28T01:05:40;102893.88;;;-4.39;100.00
53619;BME280;39505;53.040;18.488;2023-02-28T01:05:53;102892.13;;;-4.40;100.00
53619;BME280;39505;53.040;18.488;2023-02-28T01:06:07;102892.13;;;-4.40;100.00
53619;BME280;39505;53.040;18.488;2023-02-28T01:06:20;102895.59;;;-4.41;100.00
53619;BME280;39505;53.040;18.488;2023-02-28T01:06:33;102890.38;;;-4.41;100.00
53619;BME280;39505;53.040;18.488;2023-02-28T01:06:46;102900.84;;;-4.41;100.00
53619;BME280;39505;53.040;18.488;2023-02-28T01:06:59;102898.22;;;-4.41;100.00
53619;BME280;39505;53.040;18.488;2023-02-28T01:07:12;102899.09;;;-4.40;100.00
53619;BME280;39505;53.040;18.488;2023-02-28T01:07:26;102897.34;;;-4.41;100.00
53619;BME280;39505;53.040;18.488;2023-02-28T01:07:39;102898.22;;;-4.41;100.00
53619;BME280;39505;53.040;18.488;2023-02-28T01:07:52;102896.47;;;-4.42;100.00
53619;BME280;39505;53.040;18.488;2023-02-28T01:08:05;102893.84;;;-4.42;100.00